Time;durP1;ratioP1;P1;durP2;ratioP2;P2;SDS_P1;SDS_P2;PMS_P1;PMS_P2;Temp;Humidity;BMP_temperature;BMP_pressure;BME280_temperature;BME280_humidity;BME280_pressure;Samples;Min_cycle;Max_cycle;Signal;HPM_P1;HPM_P2
2021/03/13 00:00:39;;;;;;;1.30;1.20;;;;;;;6.17;77.90;98112.59;5134723;27;42221;-78
2021/03/13 00:03:07;;;;;;;1.40;1.30;;;;;;;6.19;78.15;98102.81;5107928;28;40843;-79
2021/03/13 00:05:37;;;;;;;1.50;1.40;;;;;;;6.22;77.75;98107.03;5108975;28;41113;-74
2021/03/13 00:08:05;;;;;;;2.53;1.30;;;;;;;6.12;78.64;98091.81;5105123;28;42014;-78
2021/03/13 00:10:34;;;;;;;1.40;1.30;;;;;;;6.19;78.72;98094.91;5109337;28;42189;-78
2021/03/13 00:13:01;;;;;;;1.63;1.20;;;;;;;6.26;78.57;98104.16;5108951;28;39804;-78
2021/03/13 00:15:29;;;;;;;3.00;1.20;;;;;;;6.29;78.11;98100.53;5091423;28;40707;-78
2021/03/13 00:17:57;;;;;;;3.37;1.50;;;;;;;6.33;78.31;98102.88;5109488;27;42710;-77
2021/03/13 00:20:27;;;;;;;1.87;1.27;;;;;;;6.36;78.66;98096.59;5090836;28;42146;-75
2021/03/13 00:22:56;;;;;;;1.27;1.20;;;;;;;6.35;78.52;98100.16;5108115;28;39214;-76
2021/03/13 00:25:25;;;;;;;1.10;1.00;;;;;;;6.28;78.17;98083.06;5090222;28;40579;-75
2021/03/13 00:27:53;;;;;;;2.83;1.30;;;;;;;6.39;78.17;98093.78;5091778;28;41739;-78
2021/03/13 00:30:22;;;;;;;2.13;1.10;;;;;;;6.38;78.17;98092.09;5108156;28;42041;-78
2021/03/13 00:33:07;;;;;;;1.20;1.10;;;;;;;6.39;78.26;98094.63;5092907;28;39237;-78
2021/03/13 00:35:35;;;;;;;2.00;1.00;;;;;;;6.28;78.35;98069.91;5109700;27;41373;-78
2021/03/13 00:38:04;;;;;;;2.20;1.00;;;;;;;6.41;78.47;98091.94;5107827;28;42630;-78
2021/03/13 00:40:33;;;;;;;3.20;1.17;;;;;;;6.41;78.25;98089.28;5105653;28;42022;-78
2021/03/13 00:43:02;;;;;;;2.07;1.10;;;;;;;6.38;78.20;98078.94;5093549;28;40131;-77
2021/03/13 00:45:29;;;;;;;1.33;1.13;;;;;;;6.41;78.11;98078.78;5110533;28;41523;-75
2021/03/13 00:47:57;;;;;;;1.30;1.13;;;;;;;6.44;78.11;98082.06;5111076;28;42134;-76
2021/03/13 00:50:27;;;;;;;1.23;1.03;;;;;;;6.43;78.25;98090.88;5111978;28;41297;-79
2021/03/13 00:52:56;;;;;;;1.63;1.40;;;;;;;6.43;78.43;98079.50;5093025;28;40314;-78
2021/03/13 00:55:23;;;;;;;1.83;1.47;;;;;;;6.47;78.48;98075.78;5111924;28;41446;-77
2021/03/13 00:57:55;;;;;;;1.73;1.30;;;;;;;6.47;78.54;98070.50;5094751;28;41648;-77
2021/03/13 01:00:25;;;;;;;2.33;1.50;;;;;;;6.45;78.79;98067.13;5111496;28;42919;-78
2021/03/13 01:02:53;;;;;;;1.53;1.40;;;;;;;6.49;78.50;98074.75;5111398;28;39871;-78
2021/03/13 01:05:21;;;;;;;2.07;1.80;;;;;;;6.53;78.60;98075.44;5111654;28;41636;-79
2021/03/13 01:07:49;;;;;;;4.30;1.73;;;;;;;6.53;78.65;98069.31;5094678;28;41795;-77
2021/03/13 01:10:22;;;;;;;2.33;1.80;;;;;;;6.51;78.80;98056.25;5110438;28;42319;-77
2021/03/13 01:12:50;;;;;;;1.43;1.33;;;;;;;6.58;78.47;98062.84;5110453;28;39570;-75
2021/03/13 01:15:19;;;;;;;1.83;1.60;;;;;;;6.51;78.97;98051.00;5112676;27;41283;-77
2021/03/13 01:17:49;;;;;;;2.50;1.63;;;;;;;6.58;78.60;98052.31;5095112;28;41830;-74
2021/03/13 01:20:18;;;;;;;2.33;1.67;;;;;;;6.43;78.73;98027.75;5095301;28;41504;-79
2021/03/13 01:22:46;;;;;;;3.10;1.60;;;;;;;6.56;78.98;98045.44;5094923;28;38990;-77
2021/03/13 01:25:15;;;;;;;2.27;1.57;;;;;;;6.57;78.84;98045.34;5091754;28;42100;-78
2021/03/13 01:27:44;;;;;;;1.83;1.67;;;;;;;6.57;78.51;98034.00;5096188;28;42699;-75
2021/03/13 01:30:15;;;;;;;4.33;1.53;;;;;;;6.57;78.71;98037.47;5111607;28;41259;-77
2021/03/13 01:32:43;;;;;;;1.70;1.40;;;;;;;6.62;78.25;98038.06;5108677;28;42137;-75
2021/03/13 01:35:12;;;;;;;1.70;1.60;;;;;;;6.55;78.18;98020.09;5111729;28;41358;-75
2021/03/13 01:37:39;;;;;;;1.67;1.40;;;;;;;6.65;78.48;98026.50;5092566;28;42759;-75
2021/03/13 01:40:10;;;;;;;2.37;1.53;;;;;;;6.66;78.69;98022.94;5094770;28;42474;-79
2021/03/13 01:42:39;;;;;;;1.70;1.33;;;;;;;6.69;78.83;98018.31;5116736;27;40394;-78
2021/03/13 01:45:15;;;;;;;1.60;1.37;;;;;;;6.66;78.92;98008.00;5111032;28;41263;-75
2021/03/13 01:47:43;;;;;;;2.57;1.30;;;;;;;6.64;79.01;98001.97;5112023;28;41625;-76
2021/03/13 01:50:17;;;;;;;1.47;1.20;;;;;;;6.68;78.78;98006.09;5094905;28;41386;-75
2021/03/13 01:52:45;;;;;;;1.17;1.07;;;;;;;6.58;79.07;97997.06;5094082;28;39028;-75
2021/03/13 01:55:13;;;;;;;1.47;1.17;;;;;;;6.62;78.71;98001.22;5111103;27;42156;-75
2021/03/13 01:57:42;;;;;;;1.80;1.33;;;;;;;6.64;78.53;97999.34;5111133;28;42492;-78
2021/03/13 02:00:16;;;;;;;1.87;1.10;;;;;;;6.65;79.06;98002.84;5094322;28;41221;-76
2021/03/13 02:02:44;;;;;;;2.93;1.17;;;;;;;6.68;78.40;98000.84;5109627;28;39149;-78
2021/03/13 02:05:24;;;;;;;2.03;1.03;;;;;;;6.71;78.80;97989.28;5094669;28;40807;-77
2021/03/13 02:08:00;;;;;;;1.47;1.37;;;;;;;6.65;78.47;97974.75;5110957;28;43403;-78
2021/03/13 02:10:37;;;;;;;1.43;1.33;;;;;;;6.67;78.96;97978.13;5111073;28;41816;-77
2021/03/13 02:13:12;;;;;;;1.10;1.00;;;;;;;6.69;78.81;97976.22;5111844;28;39558;-78
2021/03/13 02:15:51;;;;;;;1.20;1.10;;;;;;;6.73;78.43;97972.47;5112065;27;41782;-78
2021/03/13 02:18:26;;;;;;;1.50;1.40;;;;;;;6.75;78.52;97973.22;5108405;28;42866;-78
2021/03/13 02:21:15;;;;;;;1.23;1.23;;;;;;;6.79;78.32;97985.28;5092860;28;41101;-77
2021/03/13 02:24:20;;;;;;;1.60;1.40;;;;;;;6.76;78.23;97969.66;5109741;28;40891;-78
2021/03/13 02:27:01;;;;;;;1.70;1.60;;;;;;;6.81;78.21;97970.22;5078593;28;41557;-77
2021/03/13 02:29:48;;;;;;;2.57;1.23;;;;;;;6.80;78.05;97967.66;5093743;28;41742;-78
2021/03/13 02:32:31;;;;;;;1.40;1.30;;;;;;;6.87;77.97;97957.63;5092037;28;41998;-76
2021/03/13 02:35:03;;;;;;;1.77;1.37;;;;;;;6.87;77.79;97945.31;5104578;28;40478;-77
2021/03/13 02:37:34;;;;;;;1.47;1.37;;;;;;;6.92;77.69;97945.03;5110710;28;42273;-76
2021/03/13 02:40:07;;;;;;;2.60;1.30;;;;;;;6.95;77.61;97944.81;5111175;28;42848;-77
2021/03/13 02:42:43;;;;;;;1.20;1.20;;;;;;;6.96;77.24;97943.91;5133677;27;42392;-76
2021/03/13 02:45:14;;;;;;;2.80;1.77;;;;;;;6.96;77.85;97936.84;5110406;28;38977;-77
2021/03/13 02:47:44;;;;;;;2.30;1.50;;;;;;;6.90;77.54;97916.19;5110778;28;42081;-78
2021/03/13 02:50:14;;;;;;;1.60;1.50;;;;;;;6.96;77.61;97922.84;5110764;28;43393;-76
2021/03/13 02:52:53;;;;;;;1.43;1.33;;;;;;;6.96;77.82;97925.47;5109014;28;43052;-77
2021/03/13 02:55:22;;;;;;;2.67;1.63;;;;;;;6.92;78.05;97924.84;5108884;27;40364;-75
2021/03/13 02:57:53;;;;;;;2.40;1.30;;;;;;;6.94;77.66;97912.41;5088010;28;40651;-75
2021/03/13 03:00:23;;;;;;;2.43;1.30;;;;;;;6.84;78.26;97901.63;5089930;28;43463;-77
2021/03/13 03:02:57;;;;;;;2.43;1.33;;;;;;;6.88;78.20;97911.97;5113913;27;42569;-77
2021/03/13 03:05:30;;;;;;;1.00;0.90;;;;;;;6.91;78.64;97906.50;5104346;28;40716;-76
2021/03/13 03:08:01;;;;;;;1.37;1.27;;;;;;;6.94;78.29;97906.28;5089070;28;41559;-77
2021/03/13 03:10:32;;;;;;;1.50;1.40;;;;;;;6.97;78.50;97895.56;5110817;28;42732;-75
2021/03/13 03:13:01;;;;;;;1.13;1.00;;;;;;;6.99;78.61;97894.53;5112958;28;41300;-76
2021/03/13 03:15:32;;;;;;;2.57;1.20;;;;;;;7.00;78.13;97885.72;5131007;27;41595;-75
2021/03/13 03:18:02;;;;;;;1.47;1.37;;;;;;;6.93;78.05;97868.59;5129885;27;41732;-75
2021/03/13 03:20:32;;;;;;;1.53;1.17;;;;;;;7.04;78.39;97875.84;5125439;28;43852;-75
2021/03/13 03:23:00;;;;;;;1.77;1.10;;;;;;;7.00;78.35;97863.81;5090261;28;41267;-76
2021/03/13 03:25:27;;;;;;;3.50;1.13;;;;;;;7.01;78.84;97865.50;5105777;28;39970;-78
2021/03/13 03:27:54;;;;;;;4.03;1.90;;;;;;;7.01;79.24;97868.97;5107716;28;40647;-76
2021/03/13 03:30:37;;;;;;;3.70;1.93;;;;;;;6.96;79.60;97860.50;5110196;28;42677;-78
2021/03/13 03:33:06;;;;;;;2.00;1.00;;;;;;;6.98;79.44;97860.41;5106855;28;42995;-79
2021/03/13 03:35:36;;;;;;;1.30;1.07;;;;;;;6.85;79.61;97850.69;5091720;28;39823;-79
2021/03/13 03:38:04;;;;;;;1.60;0.90;;;;;;;6.97;79.55;97858.72;5110172;28;42167;-75
2021/03/13 03:40:34;;;;;;;3.87;1.20;;;;;;;6.88;80.31;97844.38;5093036;28;42475;-76
2021/03/13 03:43:07;;;;;;;2.23;0.80;;;;;;;6.94;80.18;97853.66;5109695;28;42972;-75
2021/03/13 03:45:36;;;;;;;1.27;0.80;;;;;;;7.02;80.02;97852.25;5110374;28;39654;-76
2021/03/13 03:48:07;;;;;;;1.80;1.20;;;;;;;6.96;80.04;97841.25;5091619;28;41465;-79
2021/03/13 03:50:37;;;;;;;2.70;0.90;;;;;;;6.88;79.79;97817.22;5107265;28;43483;-76
2021/03/13 03:53:17;;;;;;;0.70;0.70;;;;;;;7.01;80.08;97852.34;5110077;28;43017;-79
2021/03/13 03:55:48;;;;;;;1.30;0.70;;;;;;;7.02;80.28;97841.72;5109201;28;39786;-78
2021/03/13 03:58:20;;;;;;;0.90;0.90;;;;;;;6.98;80.32;97839.38;5108268;27;41224;-76
2021/03/13 04:00:48;;;;;;;2.23;0.90;;;;;;;7.00;80.11;97842.75;5111392;27;43484;-78
2021/03/13 04:03:18;;;;;;;1.23;0.90;;;;;;;6.99;80.42;97833.16;5110820;27;42205;-78
2021/03/13 04:05:46;;;;;;;2.17;1.00;;;;;;;7.01;80.38;97828.66;5092602;28;39765;-78
2021/03/13 04:08:15;;;;;;;2.73;1.07;;;;;;;6.96;80.34;97830.72;5109816;28;42116;-76
2021/03/13 04:10:44;;;;;;;2.17;0.93;;;;;;;6.91;80.53;97825.78;5111164;27;42799;-77
2021/03/13 04:13:12;;;;;;;1.33;0.97;;;;;;;6.91;80.60;97827.56;5106903;28;42209;-81
2021/03/13 04:15:41;;;;;;;2.70;1.03;;;;;;;6.91;80.86;97822.28;5088795;28;39907;-79
2021/03/13 04:18:09;;;;;;;0.87;0.87;;;;;;;6.93;80.98;97815.13;5106822;28;41678;-75
2021/03/13 04:20:37;;;;;;;2.77;0.90;;;;;;;6.94;80.87;97808.91;5111169;28;42833;-78
2021/03/13 04:23:06;;;;;;;2.40;1.57;;;;;;;6.91;81.23;97801.25;5114617;27;42725;-76
2021/03/13 04:25:33;;;;;;;4.73;0.90;;;;;;;6.91;81.22;97804.72;5091457;28;38778;-76
2021/03/13 04:28:01;;;;;;;1.70;1.20;;;;;;;6.87;81.08;97786.56;5092520;28;41682;-76
2021/03/13 04:30:30;;;;;;;1.80;0.97;;;;;;;6.97;81.23;97798.19;5101187;28;43586;-78
2021/03/13 04:32:59;;;;;;;1.23;1.00;;;;;;;6.92;81.40;97803.78;5108838;28;42380;-78
2021/03/13 04:35:27;;;;;;;2.90;0.93;;;;;;;6.89;81.31;97798.69;5112372;28;39239;-78
2021/03/13 04:37:56;;;;;;;1.30;0.80;;;;;;;6.95;81.09;97805.34;5112923;28;41286;-78
2021/03/13 04:40:24;;;;;;;1.70;0.80;;;;;;;6.96;81.71;97799.13;5112457;28;41553;-77
2021/03/13 04:42:52;;;;;;;2.53;1.00;;;;;;;6.86;81.86;97788.38;5108775;28;42195;-77
2021/03/13 04:45:20;;;;;;;1.60;1.00;;;;;;;6.96;81.61;97796.50;5084174;28;39287;-75
2021/03/13 04:47:49;;;;;;;1.10;0.87;;;;;;;6.95;81.89;97797.44;5092631;28;40835;-76
2021/03/13 04:50:18;;;;;;;1.13;0.83;;;;;;;7.00;81.63;97795.38;5106833;28;43214;-77
2021/03/13 04:52:46;;;;;;;1.77;0.73;;;;;;;6.89;81.63;97782.06;5112325;28;41203;-75
2021/03/13 04:55:15;;;;;;;0.90;0.70;;;;;;;6.95;81.72;97786.91;5096284;28;39773;-78
2021/03/13 04:57:42;;;;;;;2.50;1.17;;;;;;;6.88;81.53;97765.44;5113731;27;42315;-76
2021/03/13 05:00:11;;;;;;;1.10;0.70;;;;;;;6.87;81.36;97758.47;5113136;27;43611;-78
2021/03/13 05:02:38;;;;;;;0.50;0.50;;;;;;;6.93;81.51;97781.75;5112390;28;42452;-76
2021/03/13 05:05:07;;;;;;;0.60;0.50;;;;;;;6.93;81.17;97778.28;5110773;28;39254;-78
2021/03/13 05:07:35;;;;;;;0.83;0.60;;;;;;;6.95;80.96;97765.84;5112224;27;41529;-77
2021/03/13 05:10:03;;;;;;;1.37;0.60;;;;;;;6.89;81.34;97767.13;5112511;28;43603;-77
2021/03/13 05:12:31;;;;;;;1.40;0.50;;;;;;;6.90;81.11;97767.97;5111675;28;41916;-76
2021/03/13 05:14:58;;;;;;;1.33;0.53;;;;;;;6.87;81.41;97761.13;5108179;28;39743;-79
2021/03/13 05:17:25;;;;;;;2.03;0.80;;;;;;;6.85;81.57;97758.56;5112486;28;40675;-77
2021/03/13 05:19:53;;;;;;;1.27;0.70;;;;;;;6.87;81.67;97755.00;5113592;27;42668;-78
2021/03/13 05:22:20;;;;;;;1.20;0.80;;;;;;;6.84;81.60;97748.16;5109079;27;42049;-78
2021/03/13 05:24:47;;;;;;;2.10;0.70;;;;;;;6.75;81.73;97733.81;5113593;27;40683;-79
2021/03/13 05:27:14;;;;;;;1.30;0.70;;;;;;;6.84;81.58;97733.19;5107763;27;42359;-81
2021/03/13 05:29:42;;;;;;;2.03;0.83;;;;;;;6.83;81.74;97736.78;5110057;27;42503;-77
2021/03/13 05:32:09;;;;;;;1.57;0.70;;;;;;;6.84;81.86;97735.84;5109607;28;41404;-76
2021/03/13 05:34:36;;;;;;;1.30;0.80;;;;;;;6.82;82.47;97734.25;5112366;28;39813;-79
2021/03/13 05:37:03;;;;;;;1.17;0.90;;;;;;;6.84;81.93;97732.34;5110697;28;41575;-77
2021/03/13 05:39:30;;;;;;;2.97;1.10;;;;;;;6.84;82.10;97732.34;5112887;27;42486;-76
2021/03/13 05:41:58;;;;;;;1.37;0.77;;;;;;;6.83;82.25;97726.25;5111145;28;41447;-75
2021/03/13 05:44:26;;;;;;;0.73;0.67;;;;;;;6.80;81.86;97718.53;5111769;27;41619;-77
2021/03/13 05:46:55;;;;;;;1.17;0.63;;;;;;;6.90;81.89;97725.88;5112159;28;41662;-77
2021/03/13 05:49:23;;;;;;;3.03;0.90;;;;;;;6.87;82.13;97711.13;5108221;28;41740;-77
2021/03/13 05:51:50;;;;;;;3.03;0.97;;;;;;;6.77;82.12;97692.47;5105266;28;43073;-78
2021/03/13 05:54:18;;;;;;;1.57;0.83;;;;;;;6.93;81.85;97709.84;5109243;27;39821;-75
2021/03/13 05:56:45;;;;;;;2.37;0.97;;;;;;;6.76;81.90;97682.88;5110267;28;42259;-78
2021/03/13 05:59:14;;;;;;;2.40;1.10;;;;;;;6.95;82.05;97705.34;5094885;28;42096;-75
2021/03/13 06:01:43;;;;;;;2.67;0.90;;;;;;;6.89;82.12;97698.69;5109041;28;41840;-77
2021/03/13 06:04:12;;;;;;;3.67;1.10;;;;;;;7.01;82.06;97692.63;5110850;28;41267;-77
2021/03/13 06:06:39;;;;;;;1.40;1.00;;;;;;;6.91;81.94;97682.81;5112511;27;41468;-78
2021/03/13 06:09:07;;;;;;;2.80;0.90;;;;;;;7.08;81.41;97672.81;5111379;28;42711;-77
2021/03/13 06:11:34;;;;;;;3.30;1.07;;;;;;;7.13;81.36;97677.78;5109833;27;43019;-78
2021/03/13 06:14:02;;;;;;;3.87;1.27;;;;;;;7.19;80.98;97669.47;5112608;27;39975;-79
2021/03/13 06:16:32;;;;;;;4.23;1.13;;;;;;;7.20;81.32;97671.16;5108265;28;40816;-76
2021/03/13 06:18:59;;;;;;;3.23;0.90;;;;;;;7.14;81.16;97646.09;5106183;28;43412;-78
2021/03/13 06:21:31;;;;;;;2.73;0.93;;;;;;;7.36;80.52;97663.06;5110812;28;42062;-77
2021/03/13 06:23:59;;;;;;;3.20;1.10;;;;;;;7.43;80.25;97652.00;5112009;28;39928;-78
2021/03/13 06:26:28;;;;;;;2.57;0.97;;;;;;;7.47;80.53;97658.75;5108762;27;42349;-76
2021/03/13 06:28:56;;;;;;;3.43;1.20;;;;;;;7.55;80.16;97658.19;5110931;28;41843;-78
2021/03/13 06:31:28;;;;;;;5.37;1.23;;;;;;;7.60;79.64;97652.63;5094150;28;42405;-77
2021/03/13 06:33:55;;;;;;;4.67;1.30;;;;;;;7.60;79.33;97631.53;5107115;28;40914;-78
2021/03/13 06:36:24;;;;;;;2.83;1.00;;;;;;;7.72;79.07;97651.75;5109397;28;41114;-77
2021/03/13 06:38:53;;;;;;;4.47;1.00;;;;;;;7.75;78.73;97641.88;5093374;28;41778;-77
2021/03/13 06:41:22;;;;;;;5.23;0.93;;;;;;;7.81;78.39;97641.41;5106816;28;42745;-79
2021/03/13 06:43:51;;;;;;;3.57;1.27;;;;;;;7.89;78.00;97639.09;5105334;28;39786;-75
2021/03/13 06:46:19;;;;;;;1.17;0.70;;;;;;;7.97;77.66;97630.63;5091136;28;40704;-77
2021/03/13 06:48:48;;;;;;;5.37;0.97;;;;;;;7.90;77.60;97608.31;5110627;28;43504;-78
2021/03/13 06:51:26;;;;;;;3.13;1.00;;;;;;;8.07;76.92;97622.91;5111335;27;42258;-77
2021/03/13 06:54:06;;;;;;;4.80;1.43;;;;;;;8.08;76.58;97621.94;5110695;28;39694;-78
2021/03/13 06:56:36;;;;;;;1.90;0.70;;;;;;;8.20;76.13;97632.44;5108136;28;41994;-75
2021/03/13 06:59:17;;;;;;;1.30;0.70;;;;;;;8.29;75.38;97623.88;5093952;28;42851;-77
2021/03/13 07:01:45;;;;;;;3.03;0.80;;;;;;;8.34;75.63;97613.03;5111068;28;42042;-77
2021/03/13 07:04:14;;;;;;;3.30;0.67;;;;;;;8.40;75.05;97614.38;5110244;28;39837;-78
2021/03/13 07:06:45;;;;;;;2.00;0.70;;;;;;;8.38;74.46;97608.38;5110293;28;40866;-77
2021/03/13 07:09:13;;;;;;;2.40;0.80;;;;;;;8.42;74.22;97599.25;5111076;28;43185;-76
2021/03/13 07:11:40;;;;;;;4.97;0.80;;;;;;;8.48;74.57;97606.72;5108853;28;41750;-75
2021/03/13 07:14:07;;;;;;;2.13;0.77;;;;;;;8.43;74.39;97585.13;5110579;27;39812;-75
2021/03/13 07:16:36;;;;;;;2.47;0.70;;;;;;;8.47;73.96;97576.03;5109431;28;41933;-76
2021/03/13 07:19:05;;;;;;;1.83;0.70;;;;;;;8.65;73.35;97596.59;5108160;27;42681;-77
2021/03/13 07:21:35;;;;;;;2.27;0.70;;;;;;;8.65;72.84;97580.75;5089127;28;41130;-78
2021/03/13 07:24:06;;;;;;;3.17;0.80;;;;;;;8.77;72.76;97575.53;5106326;28;40599;-75
2021/03/13 07:26:37;;;;;;;3.27;1.30;;;;;;;8.93;71.79;97574.25;5106164;28;41575;-75
2021/03/13 07:29:06;;;;;;;1.80;1.00;;;;;;;8.93;71.35;97563.69;5107578;27;20218;-75
2021/03/13 07:31:35;;;;;;;3.87;1.13;;;;;;;9.04;70.74;97568.13;5107141;28;42687;-76
2021/03/13 07:34:05;;;;;;;2.57;0.90;;;;;;;9.02;70.51;97560.31;5106627;28;39635;-76
2021/03/13 07:36:36;;;;;;;4.73;1.00;;;;;;;9.11;70.28;97582.56;5106271;28;41506;-77
2021/03/13 07:39:11;;;;;;;1.73;0.70;;;;;;;8.92;70.59;97567.28;5106518;28;43779;-78
2021/03/13 07:41:44;;;;;;;2.40;0.70;;;;;;;8.95;69.63;97563.56;5106859;28;42760;-76
2021/03/13 07:44:12;;;;;;;3.27;0.90;;;;;;;9.05;70.01;97576.91;5107087;27;39634;-77
2021/03/13 07:46:39;;;;;;;3.50;0.77;;;;;;;9.13;69.32;97574.53;5105981;28;42276;-76
2021/03/13 07:49:06;;;;;;;1.70;0.53;;;;;;;9.17;69.26;97565.38;5107097;27;42741;-78
2021/03/13 07:51:33;;;;;;;4.43;1.57;;;;;;;9.18;69.33;97565.28;5088911;28;41069;-79
2021/03/13 07:54:02;;;;;;;1.80;0.80;;;;;;;9.32;68.77;97564.22;5106756;27;39782;-77
2021/03/13 07:56:31;;;;;;;2.10;0.80;;;;;;;9.40;68.60;97560.94;5088161;28;41341;-75
2021/03/13 07:58:59;;;;;;;2.70;0.73;;;;;;;9.57;67.92;97565.75;5086225;28;41978;-78
2021/03/13 08:01:50;;;;;;;2.10;1.00;;;;;;;9.66;67.91;97562.38;5104820;28;42074;-77
2021/03/13 08:04:56;;;;;;;2.63;0.90;;;;;;;9.58;67.31;97563.00;5107767;27;39512;-76
2021/03/13 08:07:23;;;;;;;1.07;0.77;;;;;;;9.59;67.76;97567.34;5086200;28;41331;-77
2021/03/13 08:09:51;;;;;;;3.23;0.80;;;;;;;9.57;67.14;97552.56;5073335;28;42996;-78
2021/03/13 08:12:37;;;;;;;2.27;0.80;;;;;;;9.52;67.60;97555.53;5105851;28;42759;-77
2021/03/13 08:15:12;;;;;;;2.17;0.77;;;;;;;9.55;66.53;97541.25;5106674;27;40926;-77
2021/03/13 08:17:40;;;;;;;3.80;0.77;;;;;;;9.50;66.61;97531.06;5107298;27;41291;-76
2021/03/13 08:20:09;;;;;;;1.53;0.70;;;;;;;9.72;66.35;97552.19;5106626;27;42522;-77
2021/03/13 08:22:37;;;;;;;2.57;0.87;;;;;;;9.88;66.26;97541.22;5106699;27;42825;-78
2021/03/13 08:25:26;;;;;;;2.43;0.60;;;;;;;10.01;65.21;97541.88;5105406;28;39940;-78
2021/03/13 08:27:54;;;;;;;1.67;0.57;;;;;;;10.01;64.67;97517.28;5104830;28;41639;-76
2021/03/13 08:30:24;;;;;;;1.53;0.77;;;;;;;10.00;64.41;97516.44;5105355;28;43908;-76
2021/03/13 08:33:02;;;;;;;1.37;0.70;;;;;;;10.26;64.30;97519.59;5090116;28;42559;-76
2021/03/13 08:35:35;;;;;;;2.10;0.70;;;;;;;10.25;63.21;97517.94;5089383;28;39689;-75
2021/03/13 08:38:02;;;;;;;2.53;0.70;;;;;;;10.41;64.04;97523.63;5107632;27;41542;-76
2021/03/13 08:40:31;;;;;;;1.73;0.70;;;;;;;10.47;62.88;97522.28;5106258;27;44661;-77
2021/03/13 08:42:58;;;;;;;1.60;0.60;;;;;;;10.59;61.83;97515.13;5106562;27;41779;-75
2021/03/13 08:45:34;;;;;;;4.23;0.97;;;;;;;10.70;61.94;97509.75;5105376;28;40231;-78
2021/03/13 08:48:01;;;;;;;2.33;0.93;;;;;;;10.77;61.65;97513.56;5105417;28;41906;-78
2021/03/13 08:50:56;;;;;;;1.03;0.60;;;;;;;10.75;61.71;97512.88;5087972;28;41760;-75
2021/03/13 08:53:33;;;;;;;2.53;0.80;;;;;;;10.77;61.72;97516.19;5088284;28;41268;-78
2021/03/13 08:56:00;;;;;;;3.40;0.90;;;;;;;10.91;60.80;97505.28;5105114;28;39657;-77
2021/03/13 08:58:44;;;;;;;2.27;0.80;;;;;;;10.96;60.82;97494.31;5106186;27;41474;-77
2021/03/13 09:01:19;;;;;;;2.53;0.97;;;;;;;11.01;60.32;97503.53;5104972;27;42934;-75
2021/03/13 09:03:50;;;;;;;1.50;0.60;;;;;;;11.11;60.00;97488.53;5109222;28;43027;-78
2021/03/13 09:06:19;;;;;;;1.80;0.80;;;;;;;11.35;58.52;97505.94;5107422;28;41546;-76
2021/03/13 09:08:46;;;;;;;6.53;1.00;;;;;;;11.57;58.78;97492.47;5109660;28;40719;-76
2021/03/13 09:11:13;;;;;;;2.93;0.90;;;;;;;11.56;58.73;97480.19;5109111;28;43324;-77
2021/03/13 09:13:40;;;;;;;4.00;0.80;;;;;;;11.52;57.77;97471.66;5090152;28;41211;-79
2021/03/13 09:16:18;;;;;;;6.23;1.67;;;;;;;11.60;57.49;97481.59;5108793;28;39678;-76
2021/03/13 09:18:52;;;;;;;2.40;0.90;;;;;;;11.34;57.89;97467.16;5093507;28;40962;-77
2021/03/13 09:21:41;;;;;;;3.07;1.17;;;;;;;11.53;58.25;97456.59;5113042;27;43459;-76
2021/03/13 09:24:10;;;;;;;2.57;1.00;;;;;;;11.66;56.95;97465.13;5111878;27;42269;-76
2021/03/13 09:26:37;;;;;;;3.03;0.60;;;;;;;11.78;57.38;97466.72;5112372;27;39990;-77
2021/03/13 09:29:05;;;;;;;3.33;0.87;;;;;;;11.90;57.00;97445.38;5109683;28;41559;-75
2021/03/13 09:31:34;;;;;;;4.97;1.10;;;;;;;11.94;56.88;97447.63;5112508;28;42676;-76
2021/03/13 09:34:20;;;;;;;2.10;0.67;;;;;;;12.02;55.20;97461.00;5112277;28;42894;-79
2021/03/13 09:36:48;;;;;;;2.00;0.73;;;;;;;11.87;55.34;97451.78;5094875;28;39329;-76
2021/03/13 09:39:21;;;;;;;3.00;1.00;;;;;;;11.92;55.95;97436.28;5111908;28;40542;-75
2021/03/13 09:42:19;;;;;;;4.33;0.83;;;;;;;11.93;56.44;97445.09;5112814;27;43536;-76
2021/03/13 09:44:48;;;;;;;2.97;0.93;;;;;;;11.84;56.16;97452.06;5013746;28;42153;-76
2021/03/13 09:47:20;;;;;;;4.23;1.00;;;;;;;11.73;56.94;97450.34;5093243;28;40732;-78
2021/03/13 09:49:50;;;;;;;4.40;0.80;;;;;;;11.81;56.69;97463.78;5112989;27;42525;-78
2021/03/13 09:52:23;;;;;;;2.50;1.30;;;;;;;11.78;56.66;97424.28;5092613;28;43532;-77
2021/03/13 09:54:58;;;;;;;2.50;1.00;;;;;;;11.88;55.61;97427.78;5095953;28;41567;-76
2021/03/13 09:57:27;;;;;;;1.67;0.77;;;;;;;12.37;55.20;97417.13;5111875;28;40128;-77
2021/03/13 09:59:55;;;;;;;2.60;0.70;;;;;;;12.79;54.26;97412.28;5113597;27;42228;-77
2021/03/13 10:02:23;;;;;;;1.80;0.83;;;;;;;12.89;52.98;97413.09;5112129;28;41836;-80
2021/03/13 10:04:51;;;;;;;3.83;0.77;;;;;;;12.96;52.82;97419.50;5113543;27;42061;-76
2021/03/13 10:07:19;;;;;;;3.03;0.60;;;;;;;12.88;52.63;97382.19;5112969;27;40730;-79
2021/03/13 10:09:50;;;;;;;2.70;0.80;;;;;;;13.23;53.14;97408.06;5113058;27;42481;-78
2021/03/13 10:12:23;;;;;;;1.87;0.83;;;;;;;13.33;52.21;97379.63;5112583;27;42605;-78
2021/03/13 10:14:50;;;;;;;2.63;0.80;;;;;;;13.44;52.19;97378.59;5110794;28;42203;-78
2021/03/13 10:17:18;;;;;;;3.37;0.83;;;;;;;13.49;51.63;97385.13;5110788;28;41396;-78
2021/03/13 10:19:46;;;;;;;2.57;0.87;;;;;;;13.13;52.12;97367.38;5094478;28;41640;-77
2021/03/13 10:22:15;;;;;;;0.90;0.60;;;;;;;13.16;52.75;97373.28;5111218;28;42101;-76
2021/03/13 10:24:49;;;;;;;4.33;0.93;;;;;;;12.85;52.22;97386.00;5112125;28;41731;-79
2021/03/13 10:27:35;;;;;;;1.43;0.60;;;;;;;12.79;53.01;97380.41;5095148;28;39871;-78
2021/03/13 10:30:05;;;;;;;2.03;0.80;;;;;;;12.67;53.24;97345.22;5111842;28;41731;-76
2021/03/13 10:32:34;;;;;;;1.70;0.80;;;;;;;12.77;52.32;97346.03;5124712;27;43381;-79
2021/03/13 10:35:10;;;;;;;2.47;0.70;;;;;;;12.67;52.28;97333.78;5091323;28;41217;-77
2021/03/13 10:37:40;;;;;;;1.83;0.50;;;;;;;12.85;52.06;97347.97;5107786;28;40044;-77
2021/03/13 10:40:09;;;;;;;1.47;0.50;;;;;;;13.13;50.92;97352.28;5112744;27;41618;-78
2021/03/13 10:42:36;;;;;;;1.80;0.70;;;;;;;13.23;52.06;97360.22;5112395;27;43487;-78
2021/03/13 10:45:18;;;;;;;1.27;0.70;;;;;;;13.12;50.25;97366.53;5110441;28;42857;-78
2021/03/13 10:47:46;;;;;;;1.33;0.50;;;;;;;12.79;51.15;97335.25;5090766;28;42043;-77
2021/03/13 10:50:14;;;;;;;1.33;0.50;;;;;;;12.71;52.33;97349.28;5091149;28;41969;-80
2021/03/13 10:52:42;;;;;;;2.07;0.60;;;;;;;12.62;52.55;97357.25;5106746;28;42522;-77
2021/03/13 10:55:09;;;;;;;1.70;0.70;;;;;;;12.57;53.37;97358.56;5111918;28;41954;-76
2021/03/13 10:58:00;;;;;;;0.90;0.53;;;;;;;12.29;54.43;97309.03;5112720;27;41145;-78
2021/03/13 11:00:27;;;;;;;1.43;0.50;;;;;;;12.30;55.68;97331.94;5111853;27;41499;-80
2021/03/13 11:02:54;;;;;;;1.37;0.50;;;;;;;12.52;56.36;97341.38;5112227;27;43503;-76
2021/03/13 11:05:22;;;;;;;2.67;0.50;;;;;;;12.48;55.20;97300.19;5094302;28;41525;-76
2021/03/13 11:07:50;;;;;;;1.07;0.50;;;;;;;12.67;54.95;97349.69;5110881;28;40627;-78
2021/03/13 11:10:18;;;;;;;2.83;0.60;;;;;;;12.43;56.19;97305.91;5094253;28;41053;-77
2021/03/13 11:12:45;;;;;;;1.53;1.30;;;;;;;12.24;56.13;97348.41;5110353;28;43521;-77
2021/03/13 11:15:12;;;;;;;1.10;0.60;;;;;;;12.23;57.75;97317.59;5112226;27;42165;-79
2021/03/13 11:17:39;;;;;;;3.37;1.00;;;;;;;12.09;57.53;97280.88;5111359;28;39094;-79
2021/03/13 11:20:08;;;;;;;1.90;0.60;;;;;;;11.69;57.90;97312.88;5110396;28;40780;-76
2021/03/13 11:22:36;;;;;;;0.70;0.50;;;;;;;11.69;57.97;97337.56;5110414;28;42151;-79
2021/03/13 11:25:04;;;;;;;0.53;0.53;;;;;;;11.66;58.52;97313.97;5110355;27;43007;-77
2021/03/13 11:27:31;;;;;;;1.53;0.50;;;;;;;11.71;58.99;97300.31;5116793;27;39924;-80
2021/03/13 11:30:02;;;;;;;0.60;0.50;;;;;;;11.64;59.52;97313.28;5110416;28;40649;-77
2021/03/13 11:32:31;;;;;;;1.33;0.50;;;;;;;11.45;60.19;97297.38;5088323;28;42817;-77
2021/03/13 11:34:58;;;;;;;2.07;0.87;;;;;;;11.28;61.13;97304.19;5109789;28;41988;-77
2021/03/13 11:37:25;;;;;;;2.83;0.60;;;;;;;11.27;60.05;97301.69;5110850;28;40779;-78
2021/03/13 11:39:53;;;;;;;1.37;0.77;;;;;;;11.09;60.70;97288.31;5093909;28;41690;-76
2021/03/13 11:42:27;;;;;;;0.97;0.60;;;;;;;11.12;61.59;97270.31;5110243;28;42456;-76
2021/03/13 11:44:55;;;;;;;1.23;0.50;;;;;;;11.26;61.29;97250.50;5110226;28;42335;-78
2021/03/13 11:47:23;;;;;;;2.57;0.93;;;;;;;11.48;61.37;97249.41;5090014;28;39821;-77
2021/03/13 11:49:50;;;;;;;1.37;0.70;;;;;;;11.74;61.16;97262.91;5113756;28;41461;-77
2021/03/13 11:52:18;;;;;;;2.07;0.87;;;;;;;12.11;58.72;97273.63;5100284;28;42376;-77
2021/03/13 11:54:46;;;;;;;1.23;0.40;;;;;;;12.76;57.96;97274.44;5118793;28;41027;-77